Time;durP1;ratioP1;P1;durP2;ratioP2;P2;SDS_P1;SDS_P2;PMS_P1;PMS_P2;Temp;Humidity;BMP_temperature;BMP_pressure;BME280_temperature;BME280_humidity;BME280_pressure;Samples;Min_cycle;Max_cycle;Signal;HPM_P1;HPM_P2
2022/05/17 00:00:34;;;;;;;;;6.67;6.00;;;;;22.64;48.58;101383.81;5081908;28;45325;-70
2022/05/17 00:02:59;;;;;;;;;6.67;6.00;;;;;22.67;48.50;101396.47;5082089;28;45743;-71
2022/05/17 00:05:27;;;;;;;;;7.67;5.33;;;;;22.63;48.74;101393.78;5085999;28;45519;-67
2022/05/17 00:07:53;;;;;;;;;5.67;5.33;;;;;22.61;48.66;101395.66;5072160;28;45153;-68
2022/05/17 00:10:18;;;;;;;;;6.00;5.67;;;;;22.53;48.76;101386.66;5072282;28;45466;-68
2022/05/17 00:12:43;;;;;;;;;7.00;5.33;;;;;22.49;48.82;101373.09;5075133;28;45450;-69
2022/05/17 00:15:09;;;;;;;;;7.33;6.00;;;;;22.39;49.04;101364.16;5076048;28;52680;-73
2022/05/17 00:17:35;;;;;;;;;10.67;9.00;;;;;22.34;49.50;101360.59;5082448;28;45353;-68
2022/05/17 00:20:01;;;;;;;;;5.33;5.33;;;;;22.49;49.07;101390.38;5076222;28;45346;-68
2022/05/17 00:22:27;;;;;;;;;6.33;5.67;;;;;22.42;49.29;101365.03;5076334;28;45566;-67
2022/05/17 00:24:53;;;;;;;;;5.33;5.33;;;;;22.48;49.20;101376.78;5078356;28;46569;-67
2022/05/17 00:27:18;;;;;;;;;5.00;4.67;;;;;22.54;49.19;101382.16;5079941;28;45393;-69
2022/05/17 00:29:44;;;;;;;;;5.33;4.33;;;;;22.55;49.20;101387.53;5077613;28;45460;-70
2022/05/17 00:32:09;;;;;;;;;7.00;7.00;;;;;22.28;49.29;101337.06;5079562;28;45267;-67
2022/05/17 00:34:35;;;;;;;;;5.00;5.00;;;;;22.53;49.34;101388.50;5091169;27;46165;-70
2022/05/17 00:37:00;;;;;;;;;9.67;6.00;;;;;22.50;49.70;101383.97;5079733;28;45444;-70
2022/05/17 00:39:26;;;;;;;;;7.67;5.67;;;;;22.43;49.62;101375.00;5079478;28;45565;-69
2022/05/17 00:41:51;;;;;;;;;7.33;6.00;;;;;22.34;49.81;101369.69;5091560;28;45111;-68
2022/05/17 00:47:29;;;;;;;;;6.00;6.00;;;;;22.26;50.32;101347.06;5074343;28;45538;-68
2022/05/17 00:50:22;;;;;;;;;7.00;5.00;;;;;22.39;49.95;101375.03;5075656;28;45385;-70
2022/05/17 00:52:52;;;;;;;;;7.00;4.33;;;;;22.09;50.46;101328.19;5093898;28;45354;-67
2022/05/17 00:55:20;;;;;;;;;7.33;6.00;;;;;22.29;50.54;101376.09;5073673;28;46186;-69
2022/05/17 00:58:01;;;;;;;;;6.33;5.00;;;;;22.22;50.80;101369.78;5087827;28;45427;-68
2022/05/17 01:00:29;;;;;;;;;6.00;6.00;;;;;21.98;50.86;101339.22;5075539;28;45564;-67
2022/05/17 01:03:00;;;;;;;;;8.33;6.67;;;;;22.10;50.96;101351.78;5075422;27;45350;-68
2022/05/17 01:05:26;;;;;;;;;7.67;5.67;;;;;21.77;51.30;101299.56;5073134;28;45513;-68
2022/05/17 01:07:57;;;;;;;;;4.00;4.00;;;;;22.15;51.22;101370.78;5051253;28;45339;-68
2022/05/17 01:10:26;;;;;;;;;5.67;5.67;;;;;22.06;51.25;101353.66;5056990;28;45381;-68
2022/05/17 01:14:57;;;;;;;;;11.33;7.00;;;;;21.71;51.18;101291.47;5091027;28;45062;-74
2022/05/17 01:15:50;;;;;;;;;5.33;5.00;;;;;22.14;51.08;101363.53;5079201;28;45710;-68
2022/05/17 01:18:16;;;;;;;;;6.33;4.00;;;;;22.01;51.25;101355.53;5058149;28;45584;-71
2022/05/17 01:20:41;;;;;;;;;4.33;4.33;;;;;21.82;51.28;101321.28;5076445;28;45337;-68
2022/05/17 01:23:07;;;;;;;;;6.00;4.33;;;;;21.83;51.14;101320.38;5076420;28;45555;-73
2022/05/17 01:25:34;;;;;;;;;6.33;4.67;;;;;21.89;51.03;101340.25;5079792;28;45997;-68
2022/05/17 01:28:09;;;;;;;;;8.67;6.67;;;;;21.94;51.03;101334.72;5089744;28;44980;-69
2022/05/17 01:30:34;;;;;;;;;4.00;4.00;;;;;21.90;51.08;101331.16;5084652;28;45318;-67
2022/05/17 01:32:59;;;;;;;;;7.00;6.00;;;;;21.95;50.76;101346.53;5057182;28;45626;-71
2022/05/17 01:35:25;;;;;;;;;6.33;6.33;;;;;21.85;50.62;101333.00;5075311;28;45360;-69
2022/05/17 01:37:54;;;;;;;;;4.67;4.00;;;;;21.95;50.90;101362.84;5080012;28;45444;-69
2022/05/17 01:40:20;;;;;;;;;9.00;7.67;;;;;21.91;50.79;101353.84;5075522;28;45519;-73
2022/05/17 01:42:45;;;;;;;;;4.67;4.67;;;;;21.93;50.98;101354.72;5075462;28;45534;-67
2022/05/17 01:45:11;;;;;;;;;4.33;4.33;;;;;21.77;50.71;101340.34;5074106;28;45440;-71
2022/05/17 01:47:37;;;;;;;;;10.00;7.00;;;;;21.81;50.99;101353.03;5056322;28;46083;-70
2022/05/17 01:50:03;;;;;;;;;5.00;5.00;;;;;21.83;51.02;101359.34;5071581;28;45476;-68
2022/05/17 01:52:28;;;;;;;;;10.67;4.33;;;;;21.86;51.05;101361.09;5069654;28;45280;-71
2022/05/17 01:54:53;;;;;;;;;6.00;5.00;;;;;21.48;50.59;101289.91;5052243;28;48593;-71
2022/05/17 01:57:20;;;;;;;;;7.00;6.00;;;;;21.80;50.67;101348.50;5056510;28;45608;-69
2022/05/17 01:59:45;;;;;;;;;4.33;4.00;;;;;21.84;50.82;101354.78;5075627;28;45461;-73
2022/05/17 02:02:11;;;;;;;;;5.00;3.67;;;;;21.86;50.74;101355.66;5075134;28;45509;-67
2022/05/17 02:04:36;;;;;;;;;4.33;4.33;;;;;21.62;50.82;101310.63;5074945;28;46513;-73
2022/05/17 02:07:01;;;;;;;;;5.67;3.33;;;;;21.89;50.65;101362.00;5074435;28;45311;-68
2022/05/17 02:09:27;;;;;;;;;6.00;4.00;;;;;21.90;50.68;101388.28;5072306;28;45456;-67
2022/05/17 02:11:54;;;;;;;;;5.33;4.33;;;;;21.84;50.54;101390.16;5074663;28;45297;-70
2022/05/17 02:14:19;;;;;;;;;5.00;4.00;;;;;21.64;50.64;101352.28;5073161;28;46198;-70
2022/05/17 02:16:45;;;;;;;;;5.67;4.00;;;;;21.87;50.60;101376.53;5073418;28;45569;-68
2022/05/17 02:19:10;;;;;;;;;5.00;5.00;;;;;21.70;50.60;101360.38;5071619;28;45500;-69
2022/05/17 02:21:36;;;;;;;;;5.33;4.33;;;;;21.69;50.61;101358.56;5074531;28;45590;-68
2022/05/17 02:24:03;;;;;;;;;6.67;6.67;;;;;21.57;50.00;101337.84;5074343;28;47379;-72
2022/05/17 02:26:29;;;;;;;;;4.00;4.00;;;;;21.68;49.87;101357.69;5073965;28;45568;-70
2022/05/17 02:28:55;;;;;;;;;5.00;4.00;;;;;21.89;49.78;101386.50;5075695;28;45624;-68
2022/05/17 02:31:20;;;;;;;;;4.00;4.00;;;;;21.89;50.14;101397.38;5074543;28;45467;-68
2022/05/17 02:33:47;;;;;;;;;3.00;3.00;;;;;21.56;50.00;101336.03;5074256;28;45464;-69
2022/05/17 02:36:13;;;;;;;;;3.33;3.33;;;;;21.87;49.51;101381.97;5074279;28;45320;-71
2022/05/17 02:38:38;;;;;;;;;3.00;3.00;;;;;21.89;49.55;101382.84;5074018;28;45514;-68
2022/05/17 02:41:03;;;;;;;;;2.67;2.67;;;;;21.91;49.25;101405.53;5056147;28;45475;-68
2022/05/17 02:43:30;;;;;;;;;4.00;3.00;;;;;21.71;49.38;101363.09;5074365;28;46192;-69
2022/05/17 02:45:55;;;;;;;;;3.00;3.00;;;;;21.72;48.98;101356.72;5074325;28;45432;-73
2022/05/17 02:48:21;;;;;;;;;4.33;4.33;;;;;21.93;49.08;101392.78;5074398;28;45433;-72
2022/05/17 02:50:47;;;;;;;;;3.00;3.00;;;;;21.92;48.96;101392.81;5074617;28;45504;-72
2022/05/17 02:53:12;;;;;;;;;3.67;3.67;;;;;21.90;49.24;101391.00;5076220;28;45488;-67
2022/05/17 02:55:37;;;;;;;;;7.00;4.00;;;;;21.88;49.08;101390.13;5057890;28;45454;-70
2022/05/17 02:58:03;;;;;;;;;4.00;3.33;;;;;21.87;49.02;101387.41;5079604;28;45420;-69
2022/05/17 03:00:28;;;;;;;;;6.67;3.67;;;;;21.70;49.06;101344.97;5078813;28;45616;-69
2022/05/17 03:02:54;;;;;;;;;7.00;5.67;;;;;21.87;48.92;101385.59;5077268;28;46327;-67
2022/05/17 03:05:19;;;;;;;;;6.33;6.33;;;;;21.67;48.73;101347.72;5077458;28;45591;-68
2022/05/17 03:07:45;;;;;;;;;6.67;4.00;;;;;21.83;48.91;101383.81;5077877;28;45523;-70
2022/05/17 03:10:12;;;;;;;;;4.67;4.67;;;;;21.74;48.58;101344.94;5076783;28;45624;-72
2022/05/17 03:12:38;;;;;;;;;4.00;4.00;;;;;21.89;48.57;101374.69;5077103;28;45366;-68
2022/05/17 03:15:05;;;;;;;;;3.00;3.00;;;;;21.89;48.72;101382.84;5077035;28;45488;-67
2022/05/17 03:17:30;;;;;;;;;4.00;2.67;;;;;21.89;48.83;101377.41;5077019;28;45360;-69
2022/05/17 03:19:56;;;;;;;;;3.00;3.00;;;;;21.77;48.61;101344.91;5077240;28;45504;-68
2022/05/17 03:22:21;;;;;;;;;8.00;6.00;;;;;21.92;49.10;101371.03;5075736;28;46109;-70
2022/05/17 03:24:47;;;;;;;;;5.00;4.67;;;;;21.90;49.51;101373.78;5058990;28;45443;-69
2022/05/17 03:27:16;;;;;;;;;5.00;5.00;;;;;21.69;49.91;101342.25;5077971;28;45335;-70
2022/05/17 03:29:41;;;;;;;;;6.00;5.00;;;;;21.86;49.74;101374.72;5078262;28;45441;-69
2022/05/17 03:32:07;;;;;;;;;5.33;5.00;;;;;21.86;49.68;101370.19;5077399;28;45442;-67
2022/05/17 03:34:32;;;;;;;;;4.00;4.00;;;;;21.80;49.59;101363.91;5077259;28;45426;-68
2022/05/17 03:36:57;;;;;;;;;4.33;4.33;;;;;21.78;50.08;101368.44;5076921;28;45997;-69
2022/05/17 03:39:22;;;;;;;;;5.00;5.00;;;;;21.83;49.83;101363.91;5076161;28;45521;-68
2022/05/17 03:41:48;;;;;;;;;4.00;4.00;;;;;21.82;49.58;101364.78;5076813;28;46090;-69
2022/05/17 03:44:14;;;;;;;;;5.00;4.00;;;;;21.67;49.84;101349.53;5077358;28;45447;-70
2022/05/17 03:46:39;;;;;;;;;6.00;4.00;;;;;21.77;49.92;101373.00;5077024;28;45434;-68
2022/05/17 03:49:04;;;;;;;;;5.00;4.33;;;;;21.76;49.82;101375.72;5076819;28;45692;-70
2022/05/17 03:51:30;;;;;;;;;6.67;6.33;;;;;21.62;49.98;101356.84;5074626;28;46318;-71
2022/05/17 03:53:55;;;;;;;;;9.00;5.33;;;;;21.69;50.13;101377.59;5076495;28;45550;-67
2022/05/17 03:56:20;;;;;;;;;6.67;3.67;;;;;21.48;50.04;101332.47;5058240;28;45379;-72
2022/05/17 03:58:46;;;;;;;;;4.33;4.00;;;;;21.53;50.29;101346.94;5076041;28;45524;-68
2022/05/17 04:01:12;;;;;;;;;8.00;6.00;;;;;21.57;50.78;101365.03;5055985;28;47573;-71
2022/05/17 04:03:38;;;;;;;;;8.33;6.67;;;;;21.44;51.02;101353.34;5075697;28;45489;-70
2022/05/17 04:06:05;;;;;;;;;6.33;6.00;;;;;21.32;51.14;101345.31;5076765;28;45551;-68
2022/05/17 04:08:31;;;;;;;;;9.33;6.00;;;;;21.51;51.19;101375.97;5076490;28;45685;-70
2022/05/17 04:10:57;;;;;;;;;11.00;7.33;;;;;21.52;51.52;101381.38;5076169;28;46130;-68
2022/05/17 04:13:26;;;;;;;;;6.00;6.00;;;;;21.05;51.43;101306.56;5076596;28;45373;-69
2022/05/17 04:15:52;;;;;;;;;11.33;9.33;;;;;21.37;51.67;101362.47;5076158;28;45410;-69
2022/05/17 04:18:17;;;;;;;;;5.33;5.33;;;;;21.29;52.08;101359.81;5076299;28;45610;-68
2022/05/17 04:20:42;;;;;;;;;7.67;5.67;;;;;21.42;52.36;101376.03;5075896;28;46131;-69
2022/05/17 04:23:08;;;;;;;;;6.00;6.00;;;;;21.38;52.59;101383.28;5076066;28;45370;-66
2022/05/17 04:25:33;;;;;;;;;8.33;6.67;;;;;21.36;52.61;101385.13;5076310;28;45369;-69
2022/05/17 04:27:58;;;;;;;;;6.33;6.00;;;;;21.30;52.65;101385.16;5076542;28;45522;-68
2022/05/17 04:30:24;;;;;;;;;10.33;6.00;;;;;21.32;52.89;101392.41;5077554;28;45359;-73
2022/05/17 04:32:50;;;;;;;;;5.33;5.00;;;;;21.29;53.06;101392.41;5077675;28;45573;-69
2022/05/17 04:35:17;;;;;;;;;6.67;6.67;;;;;21.27;53.08;101393.34;5078327;28;45516;-68
2022/05/17 04:37:43;;;;;;;;;9.67;7.33;;;;;21.25;53.57;101393.38;5086627;28;45116;-73
2022/05/17 04:40:11;;;;;;;;;7.67;7.67;;;;;21.20;53.28;101391.56;5078157;28;46495;-69
2022/05/17 04:42:39;;;;;;;;;8.67;7.00;;;;;21.16;53.73;101379.84;5076114;28;45415;-68
2022/05/17 04:45:07;;;;;;;;;6.67;6.67;;;;;21.17;53.91;101397.97;5079335;28;45460;-68
2022/05/17 04:47:32;;;;;;;;;9.33;7.00;;;;;20.94;53.80;101370.94;5077847;28;45716;-68
2022/05/17 04:49:58;;;;;;;;;11.67;8.33;;;;;21.13;53.85;101397.06;5056242;28;47352;-70
2022/05/17 04:52:23;;;;;;;;;9.33;7.00;;;;;21.11;54.19;101398.00;5075617;28;45420;-68
2022/05/17 04:54:50;;;;;;;;;6.00;6.00;;;;;20.89;53.94;101356.50;5075092;28;45472;-68
2022/05/17 04:57:15;;;;;;;;;9.33;6.67;;;;;21.05;54.17;101395.31;5076922;28;45469;-67
2022/05/17 04:59:41;;;;;;;;;7.00;6.00;;;;;20.89;53.77;101362.81;5075450;28;46157;-68
2022/05/17 05:02:06;;;;;;;;;6.33;6.33;;;;;21.16;54.04;101405.19;5075665;28;45376;-68
2022/05/17 05:04:32;;;;;;;;;8.00;8.00;;;;;21.20;53.94;101411.53;5071980;28;46183;-67
2022/05/17 05:06:57;;;;;;;;;6.00;6.00;;;;;21.23;54.00;101405.16;5072496;28;45430;-68
2022/05/17 05:09:22;;;;;;;;;9.33;8.00;;;;;21.22;53.99;101406.06;5074902;28;45377;-74
2022/05/17 05:11:48;;;;;;;;;8.67;6.00;;;;;21.06;54.16;101395.31;5075064;28;45798;-68
2022/05/17 05:14:13;;;;;;;;;8.00;8.00;;;;;21.14;54.11;101420.59;5072908;27;45374;-68
2022/05/17 05:16:38;;;;;;;;;6.33;6.00;;;;;21.05;54.29;101407.09;5074908;28;46594;-69
2022/05/17 05:19:04;;;;;;;;;9.00;7.67;;;;;21.14;54.68;101427.88;5079896;27;46200;-68
2022/05/17 05:21:30;;;;;;;;;10.33;10.33;;;;;20.95;54.44;101406.25;5077500;28;45362;-69
2022/05/17 05:23:56;;;;;;;;;11.00;11.00;;;;;20.97;54.06;101396.28;5054682;28;45603;-66
2022/05/17 05:26:21;;;;;;;;;11.33;7.67;;;;;21.16;54.06;101436.91;5077333;28;45648;-68
2022/05/17 05:28:46;;;;;;;;;8.00;7.00;;;;;21.11;54.22;101431.50;5090380;28;45224;-68
2022/05/17 05:31:13;;;;;;;;;10.33;7.00;;;;;21.06;54.37;101427.00;5072752;28;45040;-71
2022/05/17 05:33:39;;;;;;;;;9.00;8.00;;;;;21.01;54.50;101424.31;5090146;28;45063;-68
2022/05/17 05:36:05;;;;;;;;;10.33;8.67;;;;;20.82;54.86;101395.44;5091085;28;45111;-68
2022/05/17 05:38:31;;;;;;;;;7.00;7.00;;;;;21.12;54.75;101433.31;5092049;28;46486;-70
2022/05/17 05:40:57;;;;;;;;;7.00;7.00;;;;;21.17;54.41;101433.28;5087631;28;45273;-67
2022/05/17 05:43:23;;;;;;;;;10.67;9.67;;;;;21.21;54.24;101435.06;5082836;28;45192;-68
2022/05/17 05:45:48;;;;;;;;;10.33;6.00;;;;;21.26;54.04;101437.75;5087425;28;45248;-68
2022/05/17 05:48:14;;;;;;;;;12.00;10.67;;;;;21.11;54.01;101408.88;5079434;28;46100;-70
2022/05/17 05:50:39;;;;;;;;;11.33;9.33;;;;;21.36;54.05;101439.47;5080572;28;45187;-67
2022/05/17 05:53:12;;;;;;;;;22.75;21.00;;;;;21.45;53.64;101446.66;5079131;28;45517;-65
2022/05/17 05:55:38;;;;;;;;;13.25;12.50;;;;;21.48;53.86;101458.47;5074457;28;45326;-66
2022/05/17 05:58:05;;;;;;;;;16.67;13.67;;;;;21.42;53.71;101434.00;5074136;28;45238;-67
2022/05/17 06:00:31;;;;;;;;;14.67;12.67;;;;;21.54;53.70;101449.34;5074858;28;45473;-68
2022/05/17 06:02:57;;;;;;;;;14.33;12.33;;;;;21.58;53.42;101450.22;5073896;28;45294;-71
2022/05/17 06:05:23;;;;;;;;;18.67;13.33;;;;;21.58;53.64;101452.94;5073863;28;45507;-69
2022/05/17 06:07:49;;;;;;;;;8.33;7.33;;;;;21.57;53.27;101452.03;5078474;28;46361;-72
2022/05/17 06:10:17;;;;;;;;;17.33;13.33;;;;;21.63;53.27;101451.09;5060630;28;45924;-70
2022/05/17 06:12:42;;;;;;;;;12.67;9.00;;;;;21.20;52.77;101357.19;5079229;28;46453;-75
2022/05/17 06:15:09;;;;;;;;;17.00;12.33;;;;;21.48;52.47;101404.09;5079512;28;45322;-72
2022/05/17 06:17:36;;;;;;;;;11.67;11.67;;;;;21.68;52.28;101436.56;5081227;28;45701;-72
2022/05/17 06:20:02;;;;;;;;;15.33;13.00;;;;;21.80;51.90;101445.53;5070912;28;45445;-72
2022/05/17 06:22:28;;;;;;;;;12.67;11.00;;;;;21.69;51.96;101427.47;5072162;28;45490;-71
2022/05/17 06:24:53;;;;;;;;;17.75;15.25;;;;;21.84;51.84;101448.16;5073743;28;45498;-73
2022/05/17 06:27:19;;;;;;;;;15.33;10.33;;;;;21.89;51.56;101443.63;5073426;28;46354;-69
2022/05/17 06:29:44;;;;;;;;;31.50;28.00;;;;;21.61;51.45;101377.66;5073201;28;45572;-72
2022/05/17 06:32:12;;;;;;;;;14.67;14.67;;;;;22.09;50.81;101451.59;5072920;28;45352;-70
2022/05/17 06:34:42;;;;;;;;;10.67;10.67;;;;;22.14;50.08;101448.81;5073649;28;45516;-70
2022/05/17 06:37:08;;;;;;;;;38.00;29.50;;;;;22.03;50.19;101421.72;5073039;28;46467;-70
2022/05/17 06:39:35;;;;;;;;;10.00;7.00;;;;;22.20;48.96;101440.56;5073584;28;46028;-75
2022/05/17 06:42:00;;;;;;;;;8.00;7.67;;;;;22.27;48.31;101445.06;5073697;28;45527;-71
2022/05/17 06:44:26;;;;;;;;;8.00;6.00;;;;;22.32;47.82;101439.56;5073342;28;45567;-71
2022/05/17 06:46:54;;;;;;;;;7.00;5.00;;;;;22.37;47.38;101439.50;5073374;28;46363;-69
2022/05/17 06:49:19;;;;;;;;;11.00;6.00;;;;;22.45;47.26;101443.06;5073292;28;45414;-71
2022/05/17 06:51:45;;;;;;;;;5.00;5.00;;;;;22.20;46.96;101383.41;5073255;28;45549;-71
2022/05/17 06:54:10;;;;;;;;;8.00;7.00;;;;;22.50;46.81;101429.38;5073989;28;45448;-70
2022/05/17 06:56:36;;;;;;;;;10.00;9.00;;;;;22.39;46.89;101394.09;5073081;28;46300;-74
2022/05/17 06:59:03;;;;;;;;;17.00;14.00;;;;;22.72;46.26;101447.28;5073230;28;45432;-71
2022/05/17 07:01:28;;;;;;;;;12.00;11.00;;;;;22.66;46.19;101425.56;5073778;28;45271;-72
2022/05/17 07:03:54;;;;;;;;;8.00;6.00;;;;;22.78;45.51;101424.47;5073556;28;45353;-73
2022/05/17 07:06:20;;;;;;;;;5.67;5.67;;;;;22.78;45.22;101425.38;5074267;28;47056;-73
2022/05/17 07:08:46;;;;;;;;;3.00;2.67;;;;;22.83;44.57;101422.59;5073992;28;45669;-73
2022/05/17 07:13:55;;;;;;;;;6.67;5.00;;;;;23.09;44.60;101454.06;5074842;28;45556;-71
2022/05/17 07:16:21;;;;;;;;;4.67;4.67;;;;;23.07;44.18;101431.41;5072829;28;49553;-74
2022/05/17 07:18:47;;;;;;;;;5.67;4.33;;;;;23.14;44.31;101439.44;5072598;28;45429;-71
2022/05/17 07:21:13;;;;;;;;;8.67;7.33;;;;;23.15;44.43;101419.44;5072717;28;45517;-72
2022/05/17 07:23:40;;;;;;;;;6.00;5.33;;;;;23.31;44.35;101438.28;5072944;28;45467;-70
2022/05/17 07:26:06;;;;;;;;;8.33;7.00;;;;;23.30;43.70;101417.41;5072698;28;46932;-71
2022/05/17 07:28:32;;;;;;;;;6.67;6.00;;;;;23.47;43.59;101436.22;5054499;28;45828;-71
2022/05/17 07:30:59;;;;;;;;;8.00;6.67;;;;;23.37;43.21;101406.38;5073218;28;45482;-73
2022/05/17 07:33:24;;;;;;;;;7.00;7.00;;;;;23.60;42.86;101426.03;5073348;28;45566;-71
2022/05/17 07:35:50;;;;;;;;;4.67;3.33;;;;;23.73;42.99;101442.16;5072688;28;45468;-72
2022/05/17 07:38:17;;;;;;;;;7.00;7.00;;;;;23.80;42.59;101444.78;5072972;28;45447;-73
2022/05/17 07:40:42;;;;;;;;;7.33;5.33;;;;;23.72;42.62;101409.44;5066275;28;45369;-69
2022/05/17 07:43:08;;;;;;;;;10.33;7.33;;;;;23.96;42.32;101440.88;5055303;28;45639;-69
2022/05/17 07:45:34;;;;;;;;;8.00;6.00;;;;;23.78;42.34;101394.78;5076621;28;46568;-71
2022/05/17 07:48:02;;;;;;;;;9.33;5.00;;;;;24.10;42.05;101441.53;5076862;28;45318;-72
2022/05/17 07:50:27;;;;;;;;;4.33;2.67;;;;;23.97;41.37;101403.56;5077678;28;45511;-70
2022/05/17 07:52:52;;;;;;;;;7.00;7.00;;;;;24.24;42.05;101434.91;5077755;28;45283;-70
2022/05/17 07:55:19;;;;;;;;;6.33;6.33;;;;;24.17;40.74;101414.09;5078032;28;45518;-72
2022/05/17 07:57:44;;;;;;;;;4.00;4.00;;;;;24.32;40.06;101419.28;5076239;28;45594;-70
2022/05/17 08:00:10;;;;;;;;;8.67;7.33;;;;;24.49;39.72;101439.88;5075662;28;45395;-70
2022/05/17 08:02:35;;;;;;;;;6.67;4.67;;;;;24.46;39.84;101428.06;5076435;28;45474;-72
2022/05/17 08:05:01;;;;;;;;;5.67;4.00;;;;;24.53;38.71;101427.94;5075874;28;45358;-72
2022/05/17 08:07:27;;;;;;;;;4.67;4.00;;;;;24.65;38.33;101442.28;5075882;28;45417;-70
2022/05/17 08:09:52;;;;;;;;;14.33;12.33;;;;;24.73;37.61;101443.94;5076021;28;45504;-72
2022/05/17 08:12:17;;;;;;;;;3.33;3.33;;;;;24.78;35.15;101440.19;5076136;28;45453;-71
2022/05/17 08:14:44;;;;;;;;;5.67;2.67;;;;;24.57;35.86;101394.22;5075529;28;45427;-69
2022/05/17 08:17:09;;;;;;;;;8.67;4.67;;;;;24.91;35.67;101434.44;5076019;28;45349;-71
2022/05/17 08:19:37;;;;;;;;;7.00;6.00;;;;;24.90;36.90;101416.25;5075555;28;45438;-71
2022/05/17 08:22:05;;;;;;;;;6.67;6.67;;;;;25.05;35.43;101429.56;5075813;28;45512;-69
2022/05/17 08:27:31;;;;;;;;;4.00;4.00;;;;;25.17;35.31;101433.84;5075327;28;45466;-69
2022/05/17 08:27:40;;;;;;;;;8.33;6.33;;;;;25.25;36.32;101444.63;5075395;28;45386;-70
2022/05/17 08:30:19;;;;;;;;;5.33;5.33;;;;;25.30;35.97;101435.38;5075051;28;45406;-70
2022/05/17 08:35:49;;;;;;;;;4.33;4.00;;;;;25.23;33.44;101402.72;5075326;28;45554;-71
2022/05/17 08:38:20;;;;;;;;;9.00;8.00;;;;;25.07;33.49;101358.44;5075293;28;45620;-69
2022/05/17 08:41:13;;;;;;;;;6.33;6.33;;;;;25.52;33.55;101437.59;5069128;28;45529;-69
2022/05/17 08:44:02;;;;;;;;;3.67;3.33;;;;;25.58;33.52;101437.44;5075277;28;45367;-69
2022/05/17 08:46:49;;;;;;;;;14.00;10.67;;;;;25.70;33.61;101433.50;5074423;28;45511;-68
2022/05/17 08:49:29;;;;;;;;;5.00;4.00;;;;;25.66;33.65;101402.59;5070981;28;45387;-71
2022/05/17 08:52:05;;;;;;;;;4.33;4.33;;;;;25.84;32.45;101420.34;5075413;28;45286;-71
2022/05/17 08:54:36;;;;;;;;;10.33;7.00;;;;;25.97;32.63;101425.53;5075175;28;45658;-70
2022/05/17 08:57:37;;;;;;;;;8.33;7.67;;;;;26.07;31.69;101422.50;5075247;28;46103;-70
2022/05/17 09:00:25;;;;;;;;;2.67;1.00;;;;;26.15;30.95;101432.34;5075107;28;45398;-71
2022/05/17 09:03:01;;;;;;;;;1.67;1.67;;;;;26.22;30.87;101426.66;5047170;28;45802;-70
2022/05/17 09:05:30;;;;;;;;;1.00;1.00;;;;;26.29;30.49;101421.91;5075238;28;45443;-69
2022/05/17 09:08:07;;;;;;;;;3.00;3.00;;;;;26.34;30.90;101416.31;5074925;28;46398;-70
2022/05/17 09:10:38;;;;;;;;;5.67;5.00;;;;;26.28;30.40;101407.31;5074629;28;45472;-69
2022/05/17 09:13:10;;;;;;;;;6.00;5.33;;;;;26.41;30.41;101412.44;5074674;28;45461;-69
2022/05/17 09:15:36;;;;;;;;;3.33;3.00;;;;;26.53;30.11;101422.13;5074807;28;45297;-70
2022/05/17 09:18:07;;;;;;;;;4.00;4.00;;;;;26.60;30.40;101418.28;5074044;28;45541;-70
2022/05/17 09:20:34;;;;;;;;;2.00;2.00;;;;;26.60;28.91;101408.22;5074296;28;45481;-71
2022/05/17 09:23:00;;;;;;;;;2.00;2.00;;;;;26.58;29.39;101398.22;5074631;28;45584;-69
2022/05/17 09:25:50;;;;;;;;;9.67;7.00;;;;;26.80;29.44;101429.56;5075393;28;45592;-70
2022/05/17 09:28:22;;;;;;;;;5.67;5.00;;;;;26.62;29.50;101367.06;5076058;28;46180;-68
2022/05/17 09:30:48;;;;;;;;;37.00;33.75;;;;;26.65;29.73;101364.25;5076521;28;45409;-69
2022/05/17 09:33:20;;;;;;;;;29.25;26.25;;;;;27.09;29.08;101407.66;5075869;28;45442;-69
2022/05/17 09:35:58;;;;;;;;;5.67;4.00;;;;;27.07;28.89;101387.63;5075026;28;45426;-70
2022/05/17 09:38:24;;;;;;;;;2.00;2.00;;;;;27.06;27.89;101381.25;5074395;28;46047;-69
2022/05/17 09:40:52;;;;;;;;;3.67;2.00;;;;;26.99;28.15;101354.94;5056086;28;45349;-68
2022/05/17 09:43:25;;;;;;;;;2.00;2.00;;;;;27.27;28.53;101406.16;5074504;28;45555;-71
2022/05/17 09:45:58;;;;;;;;;4.33;3.00;;;;;27.14;28.82;101370.00;5074686;28;45331;-70
2022/05/17 09:54:43;;;;;;;;;0.00;0.00;;;;;27.49;28.19;101395.44;5074611;28;45510;-69
2022/05/17 09:57:29;;;;;;;;;2.33;2.33;;;;;27.47;27.58;101398.22;5074611;28;45479;-70
2022/05/17 10:00:16;;;;;;;;;2.00;2.00;;;;;27.58;28.21;101401.47;5073933;28;45455;-69
2022/05/17 10:02:51;;;;;;;;;1.67;1.00;;;;;27.63;28.32;101400.44;5074310;28;45730;-69
2022/05/17 10:05:21;;;;;;;;;1.00;1.00;;;;;27.66;28.60;101386.59;5073607;28;45629;-71
2022/05/17 10:08:00;;;;;;;;;8.00;7.00;;;;;27.58;28.46;101370.38;5073140;28;45271;-71
2022/05/17 10:10:31;;;;;;;;;1.00;1.00;;;;;27.65;27.95;101374.69;5073625;28;45533;-70
2022/05/17 10:13:08;;;;;;;;;1.00;1.00;;;;;27.80;28.34;101391.59;5073176;28;45370;-74
2022/05/17 10:15:37;;;;;;;;;2.00;2.00;;;;;27.61;28.05;101348.31;5073859;28;45540;-70
2022/05/17 10:18:15;;;;;;;;;1.00;1.00;;;;;27.46;27.98;101324.16;5073431;28;45521;-71
2022/05/17 10:20:46;;;;;;;;;3.67;3.67;;;;;27.80;28.35;101380.59;5039303;28;46471;-70
2022/05/17 10:23:17;;;;;;;;;1.00;1.00;;;;;27.80;28.33;101380.59;5054784;28;45497;-71
2022/05/17 10:26:11;;;;;;;;;1.00;1.00;;;;;27.83;28.48;101381.38;5073369;28;45468;-71
2022/05/17 10:28:47;;;;;;;;;1.00;1.00;;;;;27.86;28.20;101377.66;5071506;28;45648;-70
2022/05/17 10:31:38;;;;;;;;;4.33;3.00;;;;;27.90;28.76;101369.25;5073137;28;45373;-71
2022/05/17 10:34:24;;;;;;;;;1.67;1.67;;;;;27.93;27.62;101362.75;5073161;28;45345;-72
2022/05/17 10:36:54;;;;;;;;;1.00;1.00;;;;;27.88;27.73;101348.28;5073508;28;46450;-72
2022/05/17 10:39:34;;;;;;;;;3.00;3.00;;;;;27.69;27.02;101320.59;5074005;28;45663;-71
2022/05/17 10:41:59;;;;;;;;;2.00;2.00;;;;;27.86;27.46;101344.69;5073274;28;45432;-69
2022/05/17 10:44:47;;;;;;;;;0.00;0.00;;;;;27.52;26.29;101286.41;5073298;28;45310;-71
2022/05/17 10:47:33;;;;;;;;;1.00;1.00;;;;;27.82;25.75;101354.91;5073393;28;45508;-71
2022/05/17 10:50:24;;;;;;;;;1.00;1.00;;;;;27.77;26.53;101346.81;5073890;28;45581;-72
2022/05/17 10:53:08;;;;;;;;;1.00;0.67;;;;;27.79;26.91;101338.53;5072645;28;46719;-71
2022/05/17 10:55:55;;;;;;;;;3.67;2.67;;;;;27.78;27.86;101342.22;5072655;28;45412;-70
2022/05/17 10:58:44;;;;;;;;;12.00;9.00;;;;;27.81;28.00;101330.25;5072391;28;45351;-72
2022/05/17 11:01:48;;;;;;;;;4.00;4.00;;;;;27.82;28.42;101330.19;5073550;28;45502;-70
2022/05/17 11:04:34;;;;;;;;;2.00;2.00;;;;;27.84;28.66;101324.66;5074631;28;46107;-72
2022/05/17 11:07:23;;;;;;;;;2.67;2.67;;;;;27.85;28.34;101329.16;5074037;28;45521;-72
2022/05/17 11:09:54;;;;;;;;;8.00;7.00;;;;;27.87;28.50;101335.53;5073985;28;45465;-73
2022/05/17 11:12:27;;;;;;;;;6.67;6.67;;;;;27.85;28.47;101319.09;5073048;28;45596;-71
2022/05/17 11:15:10;;;;;;;;;7.33;6.00;;;;;27.64;28.42;101285.06;5072842;28;45915;-73
2022/05/17 11:17:50;;;;;;;;;8.00;7.00;;;;;27.91;28.80;101318.84;5073421;28;45438;-70
2022/05/17 11:20:18;;;;;;;;;2.00;2.00;;;;;27.99;28.96;101309.47;5076263;28;45409;-69
2022/05/17 11:23:05;;;;;;;;;5.00;4.33;;;;;28.06;28.48;101319.28;5076283;28;45476;-72
2022/05/17 11:25:58;;;;;;;;;4.67;3.00;;;;;28.12;28.83;101306.19;5076690;28;45574;-75
2022/05/17 11:28:26;;;;;;;;;2.00;2.00;;;;;28.16;28.56;101301.47;5069926;28;45457;-76
2022/05/17 11:31:07;;;;;;;;;4.67;4.67;;;;;28.10;28.32;101277.91;5076276;28;45490;-71
2022/05/17 11:33:38;;;;;;;;;2.00;2.00;;;;;28.25;28.67;101301.13;5075949;28;45336;-72
2022/05/17 11:36:10;;;;;;;;;2.67;1.00;;;;;28.09;28.43;101269.72;5076811;28;46980;-70
2022/05/17 11:38:35;;;;;;;;;7.00;3.33;;;;;28.31;29.00;101297.22;5076000;28;45426;-71
2022/05/17 11:41:24;;;;;;;;;3.67;3.67;;;;;28.41;28.65;101295.94;5076304;28;46476;-73
2022/05/17 11:43:55;;;;;;;;;2.00;2.00;;;;;28.47;28.46;101297.53;5076109;28;45582;-72
2022/05/17 11:46:23;;;;;;;;;5.67;4.00;;;;;28.53;28.30;101291.81;5075777;28;46383;-69
2022/05/17 11:49:19;;;;;;;;;7.00;4.00;;;;;28.59;28.55;101297.09;5075330;28;45503;-69